Time;durP1;ratioP1;P1;durP2;ratioP2;P2;SDS_P1;SDS_P2;PMS_P1;PMS_P2;Temp;Humidity;BMP_temperature;BMP_pressure;BME280_temperature;BME280_humidity;BME280_pressure;Samples;Min_cycle;Max_cycle;Signal;HPM_P1;HPM_P2
2022/04/26 03:36:07;;;;;;;1.80;1.70;;;23.50;59.70;;;;;;5014749;28;20446;-82
2022/04/26 03:38:34;;;;;;;1.90;1.80;;;23.50;59.60;;;;;;5014496;28;20443;-82
2022/04/26 03:41:01;;;;;;;1.47;1.37;;;23.50;59.60;;;;;;5014707;28;20436;-83
2022/04/26 03:43:28;;;;;;;1.93;1.83;;;23.50;59.60;;;;;;5014450;28;20495;-82
2022/04/26 03:45:55;;;;;;;1.80;1.70;;;23.50;59.50;;;;;;5014638;28;20443;-82
2022/04/26 03:48:23;;;;;;;1.70;1.60;;;23.50;59.50;;;;;;5014294;28;20443;-83
2022/04/26 03:50:50;;;;;;;1.50;1.40;;;23.50;59.50;;;;;;5014565;28;20443;-82
2022/04/26 03:53:17;;;;;;;1.80;1.70;;;23.50;59.50;;;;;;5014486;28;20452;-82
2022/04/26 03:55:44;;;;;;;1.40;1.30;;;23.60;59.50;;;;;;5017096;28;20446;-81
2022/04/26 03:58:11;;;;;;;1.83;1.73;;;23.50;59.50;;;;;;5019555;28;20453;-81
2022/04/26 04:00:38;;;;;;;1.50;1.40;;;23.60;59.50;;;;;;5013932;28;20818;-82
2022/04/26 04:03:05;;;;;;;1.47;1.37;;;23.50;59.50;;;;;;5014018;28;20487;-81
2022/04/26 04:05:33;;;;;;;1.50;1.40;;;23.50;59.50;;;;;;5014045;28;20444;-81
2022/04/26 04:08:00;;;;;;;1.57;1.47;;;23.60;59.50;;;;;;5017080;28;20472;-82
2022/04/26 04:10:26;;;;;;;1.77;1.67;;;23.50;59.40;;;;;;5016845;28;20439;-82
2022/04/26 04:12:53;;;;;;;1.70;1.60;;;23.50;59.40;;;;;;5014212;28;20439;-83
2022/04/26 04:15:20;;;;;;;1.30;1.20;;;23.50;59.40;;;;;;5013928;28;20451;-82
2022/04/26 04:17:47;;;;;;;1.67;1.57;;;23.50;59.40;;;;;;5013977;28;20880;-82
2022/04/26 04:20:14;;;;;;;1.53;1.43;;;23.50;59.40;;;;;;5014151;28;20443;-82
2022/04/26 04:22:42;;;;;;;1.90;1.80;;;23.50;59.40;;;;;;5026747;28;20485;-82
2022/04/26 04:25:09;;;;;;;1.50;1.40;;;23.50;59.40;;;;;;5033487;28;20447;-81
2022/04/26 04:27:36;;;;;;;1.60;1.50;;;23.50;59.40;;;;;;5033966;28;20500;-82
2022/04/26 04:30:03;;;;;;;1.60;1.43;;;23.50;59.40;;;;;;5033438;28;20470;-90
2022/04/26 04:32:30;;;;;;;1.73;1.63;;;23.50;59.50;;;;;;5032419;28;20823;-84
2022/04/26 04:34:57;;;;;;;3.47;1.50;;;23.50;59.50;;;;;;5033607;28;20443;-84
2022/04/26 04:37:24;;;;;;;1.50;1.40;;;23.50;59.50;;;;;;5033456;28;20451;-82
2022/04/26 04:39:52;;;;;;;1.50;1.40;;;23.50;59.60;;;;;;5033292;28;20446;-81
2022/04/26 04:42:20;;;;;;;7.97;1.70;;;23.50;59.70;;;;;;5033261;28;20482;-82
2022/04/26 04:44:47;;;;;;;2.03;1.40;;;23.50;59.80;;;;;;5033219;28;20851;-82
2022/04/26 04:47:13;;;;;;;1.60;1.50;;;23.50;59.80;;;;;;5033168;28;20454;-82
2022/04/26 04:49:40;;;;;;;1.77;1.67;;;23.50;59.80;;;;;;5034351;28;20443;-81
2022/04/26 04:52:08;;;;;;;1.60;1.50;;;23.40;59.80;;;;;;5033301;28;20442;-81
2022/04/26 04:54:35;;;;;;;1.30;1.20;;;23.50;59.90;;;;;;5033085;28;20439;-81
2022/04/26 04:57:05;;;;;;;2.20;1.60;;;23.50;60.00;;;;;;5030062;28;20449;-81
2022/04/26 04:59:32;;;;;;;1.37;1.27;;;23.50;60.00;;;;;;5033127;28;20856;-82
2022/04/26 05:01:59;;;;;;;1.30;1.20;;;23.50;60.00;;;;;;5023403;28;20476;-82
2022/04/26 05:04:26;;;;;;;1.60;1.50;;;23.50;60.00;;;;;;5023491;28;20431;-82
2022/04/26 05:06:53;;;;;;;1.63;1.53;;;23.50;60.00;;;;;;5015970;28;20442;-82
2022/04/26 05:09:19;;;;;;;1.63;1.53;;;23.50;60.00;;;;;;5013310;28;20475;-82
2022/04/26 05:11:46;;;;;;;1.67;1.57;;;23.50;60.00;;;;;;5013830;28;20435;-83
2022/04/26 05:14:14;;;;;;;1.90;1.80;;;23.50;60.00;;;;;;5013481;28;20442;-82
2022/04/26 05:16:41;;;;;;;1.70;1.60;;;23.50;60.00;;;;;;5013980;28;20435;-83
2022/04/26 05:19:08;;;;;;;1.50;1.40;;;23.50;60.20;;;;;;5013606;28;20884;-82
2022/04/26 05:21:35;;;;;;;2.50;1.80;;;23.50;60.20;;;;;;5013351;28;20462;-82
2022/04/26 05:26:46;;;;;;;1.60;1.50;;;23.50;60.20;;;;;;5013252;28;20790;-82
2022/04/26 05:29:14;;;;;;;1.70;1.60;;;23.50;60.20;;;;;;5013228;28;20970;-82
2022/04/26 05:31:40;;;;;;;1.70;1.60;;;23.50;60.20;;;;;;5013672;28;20805;-82
2022/04/26 05:34:07;;;;;;;1.57;1.47;;;23.50;61.00;;;;;;5013262;28;20451;-82
2022/04/26 05:36:34;;;;;;;1.50;1.40;;;23.50;60.30;;;;;;5028725;28;20438;-82
2022/04/26 05:39:01;;;;;;;2.07;1.70;;;23.40;60.20;;;;;;5033052;28;20521;-82
2022/04/26 05:41:28;;;;;;;1.80;1.63;;;23.50;60.30;;;;;;5032900;28;20457;-82
2022/04/26 05:43:55;;;;;;;1.60;1.50;;;23.50;60.10;;;;;;5035080;28;20484;-80
2022/04/26 05:46:23;;;;;;;2.23;1.40;;;23.50;60.10;;;;;;5035467;28;20446;-80
2022/04/26 05:48:50;;;;;;;1.53;1.43;;;23.40;59.80;;;;;;5035886;28;20960;-81
2022/04/26 05:51:16;;;;;;;1.67;1.50;;;23.40;59.70;;;;;;5036039;28;20453;-81
2022/04/26 05:53:43;;;;;;;1.50;1.40;;;23.40;59.70;;;;;;5035647;28;20525;-81
2022/04/26 05:56:12;;;;;;;1.50;1.40;;;23.40;59.70;;;;;;5036132;28;20453;-80
2022/04/26 05:58:39;;;;;;;2.17;1.33;;;23.40;59.80;;;;;;5036113;28;21016;-80
2022/04/26 06:01:05;;;;;;;1.40;1.30;;;23.40;59.80;;;;;;5035294;28;20529;-80
2022/04/26 06:03:34;;;;;;;1.70;1.60;;;23.30;59.70;;;;;;5034636;28;20486;-80
2022/04/26 06:06:01;;;;;;;1.63;1.53;;;23.30;59.80;;;;;;5034687;28;20446;-80
2022/04/26 06:08:28;;;;;;;1.60;1.50;;;23.30;59.70;;;;;;5034358;28;20478;-80
2022/04/26 06:10:55;;;;;;;1.77;1.60;;;23.30;59.80;;;;;;5035258;28;20780;-80
2022/04/26 06:13:21;;;;;;;1.70;1.43;;;23.30;59.80;;;;;;5035052;28;20449;-79
2022/04/26 06:15:48;;;;;;;1.83;1.73;;;23.30;60.50;;;;;;5035172;28;20447;-79
2022/04/26 06:18:15;;;;;;;1.67;1.57;;;23.30;59.80;;;;;;5035730;28;20447;-79
2022/04/26 06:20:43;;;;;;;1.43;1.33;;;23.30;59.80;;;;;;5035764;28;20446;-80
2022/04/26 06:23:10;;;;;;;1.53;1.43;;;23.30;59.70;;;;;;5035627;28;20486;-80
2022/04/26 06:25:39;;;;;;;1.40;1.10;;;23.30;59.80;;;;;;5035843;28;20446;-80
2022/04/26 06:28:08;;;;;;;1.40;1.30;;;23.30;59.90;;;;;;5035654;28;21000;-80
2022/04/26 06:30:36;;;;;;;2.10;1.57;;;23.30;59.80;;;;;;5035729;28;20941;-79
2022/04/26 06:33:03;;;;;;;2.33;1.30;;;23.30;59.90;;;;;;5035781;28;20442;-80
2022/04/26 06:35:30;;;;;;;1.70;1.53;;;23.30;59.80;;;;;;5035638;28;20450;-80
2022/04/26 06:37:59;;;;;;;1.60;1.50;;;23.30;59.90;;;;;;5035367;28;20938;-82
2022/04/26 06:40:25;;;;;;;1.50;1.40;;;23.30;59.50;;;;;;5021490;28;20502;-82
2022/04/26 06:42:52;;;;;;;1.63;1.53;;;23.30;60.00;;;;;;5032992;28;20832;-81
2022/04/26 06:45:19;;;;;;;1.50;1.40;;;23.40;60.10;;;;;;5035038;28;20447;-82
2022/04/26 06:47:48;;;;;;;1.83;1.50;;;23.40;60.10;;;;;;5035407;28;20480;-84
2022/04/26 06:50:15;;;;;;;1.70;1.60;;;23.40;60.00;;;;;;5035171;28;20493;-83
2022/04/26 06:52:41;;;;;;;1.90;1.23;;;23.40;60.00;;;;;;5035270;28;20452;-81
2022/04/26 06:55:10;;;;;;;1.73;1.63;;;23.40;60.00;;;;;;5034210;28;20446;-81
2022/04/26 06:57:37;;;;;;;1.53;1.43;;;23.40;59.90;;;;;;5035278;28;20438;-81
2022/04/26 07:00:06;;;;;;;1.60;1.50;;;23.40;59.90;;;;;;5035042;28;20470;-82
2022/04/26 07:02:33;;;;;;;1.40;1.30;;;23.40;59.80;;;;;;5035478;28;20438;-81
2022/04/26 07:05:00;;;;;;;1.20;1.10;;;23.40;59.90;;;;;;5035251;28;20443;-81
2022/04/26 07:07:26;;;;;;;1.60;1.50;;;23.40;59.80;;;;;;5034932;28;20447;-82
2022/04/26 07:09:53;;;;;;;1.50;1.40;;;23.40;59.80;;;;;;5034946;28;20485;-82
2022/04/26 07:12:22;;;;;;;1.40;1.30;;;23.50;59.90;;;;;;5033232;28;20465;-85
2022/04/26 07:14:48;;;;;;;1.40;1.30;;;23.50;59.80;;;;;;5034865;28;20450;-84
2022/04/26 07:17:17;;;;;;;1.80;1.70;;;23.50;59.80;;;;;;5034980;28;20438;-84
2022/04/26 07:19:43;;;;;;;1.40;1.30;;;23.50;59.70;;;;;;5034675;28;20950;-84
2022/04/26 07:22:10;;;;;;;1.30;1.20;;;23.60;59.70;;;;;;5034986;28;20445;-86
2022/04/26 07:24:37;;;;;;;3.97;1.27;;;23.50;59.60;;;;;;5037664;28;20512;-85
2022/04/26 07:27:04;;;;;;;1.70;1.60;;;23.50;59.60;;;;;;5044722;28;20446;-87
2022/04/26 07:29:32;;;;;;;1.97;1.87;;;23.60;59.70;;;;;;5041022;28;21075;-85
2022/04/26 07:31:59;;;;;;;1.77;1.37;;;23.60;59.60;;;;;;5041105;28;20446;-84
2022/04/26 07:34:25;;;;;;;1.47;1.37;;;23.50;59.50;;;;;;5034716;28;20451;-84
2022/04/26 07:36:54;;;;;;;1.60;1.50;;;23.50;59.50;;;;;;5034213;28;20505;-83
2022/04/26 07:39:22;;;;;;;1.50;1.40;;;23.50;59.50;;;;;;5034455;28;21003;-83
2022/04/26 07:41:50;;;;;;;1.43;1.33;;;23.50;59.50;;;;;;5034244;28;20446;-83
2022/04/26 07:44:18;;;;;;;1.23;1.13;;;23.60;59.50;;;;;;5034306;28;20485;-83
2022/04/26 07:46:48;;;;;;;1.30;1.20;;;23.50;59.40;;;;;;5034525;28;20473;-83
2022/04/26 07:49:16;;;;;;;1.13;1.03;;;23.60;59.50;;;;;;5034005;28;20444;-83
2022/04/26 07:51:44;;;;;;;1.50;1.40;;;23.60;59.50;;;;;;5034029;28;20443;-83
2022/04/26 07:54:11;;;;;;;2.07;1.93;;;23.60;59.50;;;;;;5033637;28;20512;-82
2022/04/26 07:56:39;;;;;;;1.80;1.70;;;23.60;59.40;;;;;;5032402;28;20453;-82
2022/04/26 07:59:06;;;;;;;1.40;1.30;;;23.60;59.30;;;;;;5033793;28;20950;-86
2022/04/26 08:01:33;;;;;;;1.73;1.63;;;23.60;59.20;;;;;;5033716;28;20445;-86
2022/04/26 08:04:01;;;;;;;1.30;1.20;;;23.60;59.10;;;;;;5034099;28;20488;-86
2022/04/26 08:06:28;;;;;;;1.20;1.00;;;23.70;59.10;;;;;;5033620;28;20953;-85
2022/04/26 08:08:56;;;;;;;1.93;1.20;;;23.70;59.10;;;;;;5047918;28;20472;-85
2022/04/26 08:11:23;;;;;;;1.40;1.30;;;23.80;59.20;;;;;;5053739;28;20442;-85
2022/04/26 08:13:50;;;;;;;1.63;1.53;;;23.70;59.10;;;;;;5053886;28;20438;-85
2022/04/26 08:16:17;;;;;;;1.40;1.30;;;23.70;59.00;;;;;;5053443;28;20434;-82
2022/04/26 08:18:44;;;;;;;1.47;1.37;;;23.70;59.10;;;;;;5053628;28;20446;-82
2022/04/26 08:21:14;;;;;;;1.50;1.40;;;23.70;59.10;;;;;;5053527;28;20445;-83
2022/04/26 08:29:06;;;;;;;1.70;1.30;;;23.70;59.00;;;;;;5053182;28;20449;-84
2022/04/26 08:31:33;;;;;;;1.80;1.70;;;23.60;59.00;;;;;;5053718;28;20437;-84
2022/04/26 08:34:00;;;;;;;1.40;1.30;;;23.70;59.10;;;;;;5053706;28;20572;-84
2022/04/26 08:36:28;;;;;;;1.50;1.40;;;23.70;59.10;;;;;;5053287;28;20449;-84
2022/04/26 08:38:55;;;;;;;1.90;1.80;;;23.70;59.20;;;;;;5053495;28;20434;-85
2022/04/26 08:41:22;;;;;;;1.40;1.30;;;23.70;59.20;;;;;;5053226;28;20441;-84
2022/04/26 08:43:49;;;;;;;1.43;1.30;;;23.70;59.20;;;;;;5053034;28;20482;-84
2022/04/26 08:46:16;;;;;;;1.40;1.30;;;23.70;59.20;;;;;;5053220;28;20442;-84
2022/04/26 08:51:34;;;;;;;1.33;1.23;;;23.80;59.30;;;;;;5052996;28;20424;-83
2022/04/26 08:54:01;;;;;;;1.30;1.10;;;23.70;59.20;;;;;;5053048;28;20445;-80
2022/04/26 08:56:28;;;;;;;1.50;1.30;;;23.70;59.20;;;;;;5052977;28;20438;-83
2022/04/26 08:58:54;;;;;;;1.30;1.20;;;23.70;59.20;;;;;;5052716;28;20465;-82
2022/04/26 09:01:25;;;;;;;1.80;1.43;;;23.70;59.20;;;;;;5053167;28;20928;-82
2022/04/26 09:03:59;;;;;;;1.50;1.40;;;23.70;59.20;;;;;;5053140;28;20491;-83
2022/04/26 09:06:40;;;;;;;1.37;1.27;;;23.70;59.30;;;;;;5053036;28;20454;-82
2022/04/26 09:09:08;;;;;;;2.23;1.40;;;23.80;59.40;;;;;;5036763;28;20817;-82
2022/04/26 09:11:36;;;;;;;1.30;1.20;;;23.70;59.30;;;;;;5033094;28;20766;-81
2022/04/26 09:14:04;;;;;;;1.40;1.30;;;23.70;59.40;;;;;;5032844;28;20470;-82
2022/04/26 09:16:31;;;;;;;1.60;1.50;;;23.70;59.30;;;;;;5033067;28;20453;-82
2022/04/26 09:19:01;;;;;;;1.77;1.40;;;23.70;59.30;;;;;;5035875;28;20438;-82
2022/04/26 09:21:29;;;;;;;1.37;1.27;;;23.70;59.30;;;;;;5036737;28;20457;-83
2022/04/26 09:24:01;;;;;;;1.50;1.40;;;23.70;59.30;;;;;;5036710;28;20517;-82
2022/04/26 09:26:35;;;;;;;1.67;1.43;;;23.70;59.40;;;;;;5036679;28;20469;-82
2022/04/26 09:29:01;;;;;;;1.73;1.63;;;23.70;59.40;;;;;;5036931;28;20470;-82
2022/04/26 09:31:30;;;;;;;1.70;1.60;;;23.60;59.30;;;;;;5036764;28;20446;-82
2022/04/26 09:33:59;;;;;;;1.57;1.47;;;23.70;59.40;;;;;;5036768;28;20453;-82
2022/04/26 09:36:28;;;;;;;1.60;1.50;;;23.70;59.40;;;;;;5036956;28;21183;-82
2022/04/26 09:38:57;;;;;;;1.30;1.20;;;23.70;59.40;;;;;;5036481;28;20434;-83
2022/04/26 09:41:26;;;;;;;1.60;1.50;;;23.70;59.30;;;;;;5036513;28;20451;-83
2022/04/26 09:43:58;;;;;;;1.80;1.70;;;23.70;59.40;;;;;;5036818;28;20580;-82
2022/04/26 09:46:25;;;;;;;1.53;1.43;;;23.70;59.30;;;;;;5036563;28;20449;-82
2022/04/26 09:48:54;;;;;;;1.70;1.60;;;23.70;59.40;;;;;;5036351;28;20449;-83
2022/04/26 09:51:21;;;;;;;1.60;1.50;;;23.70;59.40;;;;;;5036529;28;20442;-83
2022/04/26 09:53:47;;;;;;;1.30;1.20;;;23.70;59.40;;;;;;5036219;28;20450;-82
2022/04/26 09:56:15;;;;;;;1.40;1.30;;;23.70;59.30;;;;;;5036288;28;20454;-83
2022/04/26 09:58:44;;;;;;;1.40;1.20;;;23.80;59.50;;;;;;5036088;28;20462;-83
2022/04/26 10:01:14;;;;;;;1.53;1.43;;;23.80;59.50;;;;;;5036051;28;20537;-82
2022/04/26 10:03:44;;;;;;;1.50;1.40;;;23.80;59.50;;;;;;5036133;28;20532;-84
2022/04/26 10:06:16;;;;;;;1.40;1.30;;;23.80;59.50;;;;;;5036239;28;20464;-82
2022/04/26 10:08:43;;;;;;;1.20;1.10;;;23.80;59.50;;;;;;5036089;28;20482;-83
2022/04/26 10:11:10;;;;;;;1.63;1.53;;;23.90;59.50;;;;;;5036286;28;20469;-82
2022/04/26 10:13:40;;;;;;;1.40;1.30;;;23.90;59.60;;;;;;5036166;28;20454;-83
2022/04/26 10:16:09;;;;;;;1.30;1.20;;;23.90;59.70;;;;;;5035948;28;20925;-83
2022/04/26 10:18:39;;;;;;;1.47;1.37;;;23.90;59.80;;;;;;5035804;28;20447;-83
2022/04/26 10:21:07;;;;;;;1.50;1.40;;;24.00;59.90;;;;;;5035905;28;20446;-83
2022/04/26 10:24:12;;;;;;;1.30;1.20;;;24.00;59.90;;;;;;5035735;28;20449;-83
2022/04/26 10:26:39;;;;;;;1.57;1.47;;;24.10;59.90;;;;;;5035882;28;20443;-83
2022/04/26 10:29:23;;;;;;;1.73;1.53;;;24.10;60.00;;;;;;5034679;28;20466;-83
2022/04/26 10:31:58;;;;;;;1.40;1.30;;;24.10;60.10;;;;;;5035436;28;20439;-83
2022/04/26 10:34:29;;;;;;;1.70;1.60;;;24.20;60.30;;;;;;5035427;28;20442;-83
2022/04/26 10:36:56;;;;;;;1.40;1.30;;;24.20;60.30;;;;;;5035301;28;20446;-82
2022/04/26 10:39:34;;;;;;;1.70;1.57;;;24.20;60.30;;;;;;5035084;28;20450;-82
2022/04/26 10:42:02;;;;;;;2.33;1.40;;;24.20;60.30;;;;;;5035179;28;20447;-83
2022/04/26 10:44:32;;;;;;;1.63;1.53;;;24.20;60.40;;;;;;5035521;28;20509;-82
2022/04/26 10:47:35;;;;;;;1.63;1.53;;;24.30;60.50;;;;;;5035091;28;20442;-83
2022/04/26 10:50:05;;;;;;;1.67;1.57;;;24.40;60.50;;;;;;5035680;28;20485;-83
2022/04/26 10:52:35;;;;;;;1.60;1.50;;;24.30;60.50;;;;;;5035167;28;20447;-83
2022/04/26 10:55:05;;;;;;;1.47;1.37;;;24.30;60.50;;;;;;5035215;28;20445;-83
2022/04/26 10:57:34;;;;;;;1.70;1.60;;;24.40;60.60;;;;;;5035373;28;20445;-83
2022/04/26 11:00:03;;;;;;;1.50;1.40;;;24.40;60.50;;;;;;5034994;28;20466;-83
2022/04/26 11:02:32;;;;;;;1.90;1.80;;;24.40;60.40;;;;;;5035159;28;20458;-83
2022/04/26 11:05:00;;;;;;;1.67;1.57;;;24.30;60.40;;;;;;5035180;28;20486;-83
2022/04/26 11:07:29;;;;;;;1.37;1.27;;;24.30;60.40;;;;;;5034616;28;20451;-83
2022/04/26 11:09:57;;;;;;;1.63;1.53;;;24.40;60.50;;;;;;5035345;28;20439;-83
2022/04/26 11:12:26;;;;;;;2.23;1.80;;;24.40;60.50;;;;;;5047269;28;20446;-83
2022/04/26 11:14:54;;;;;;;2.23;1.33;;;24.40;60.50;;;;;;5034503;28;20443;-82
2022/04/26 11:17:22;;;;;;;2.03;1.60;;;24.40;60.40;;;;;;5034164;28;20792;-82
2022/04/26 11:19:50;;;;;;;1.53;1.43;;;24.40;60.40;;;;;;5034042;28;20447;-82
2022/04/26 11:22:18;;;;;;;1.70;1.60;;;24.30;60.30;;;;;;5034573;28;20469;-83
2022/04/26 11:30:24;;;;;;;1.53;1.43;;;24.30;60.30;;;;;;5034575;28;20434;-82
2022/04/26 11:32:51;;;;;;;1.60;1.50;;;24.30;60.40;;;;;;5034517;28;20447;-82
2022/04/26 11:35:19;;;;;;;1.40;1.30;;;24.20;60.30;;;;;;5034288;28;20449;-82
2022/04/26 11:37:46;;;;;;;1.60;1.50;;;24.30;60.80;;;;;;5034321;28;20447;-82
2022/04/26 11:40:22;;;;;;;1.63;1.53;;;24.30;60.70;;;;;;5034047;28;20450;-82
2022/04/26 11:42:50;;;;;;;1.70;1.60;;;24.30;60.60;;;;;;5034509;28;20435;-82
2022/04/26 11:45:17;;;;;;;1.50;1.40;;;24.20;60.50;;;;;;5034256;28;20560;-82
2022/04/26 11:47:47;;;;;;;1.70;1.60;;;24.20;60.40;;;;;;5034282;28;20840;-82
2022/04/26 11:50:17;;;;;;;1.60;1.50;;;24.30;60.40;;;;;;5034168;28;20450;-82
2022/04/26 11:52:45;;;;;;;1.50;1.40;;;24.20;60.30;;;;;;5034310;28;20533;-82
2022/04/26 11:55:30;;;;;;;1.50;1.40;;;24.20;60.30;;;;;;5033981;28;20591;-82
2022/04/26 11:58:16;;;;;;;1.70;1.60;;;24.30;60.50;;;;;;5033733;28;20453;-82
2022/04/26 12:00:59;;;;;;;1.67;1.50;;;24.30;60.40;;;;;;5034062;28;20503;-82
2022/04/26 12:03:28;;;;;;;1.60;1.50;;;24.20;60.30;;;;;;5034141;28;20439;-82
2022/04/26 12:05:57;;;;;;;1.73;1.63;;;24.20;60.30;;;;;;5033776;28;20485;-82
2022/04/26 12:08:25;;;;;;;2.00;1.90;;;24.20;60.30;;;;;;5033442;28;20481;-82
2022/04/26 12:10:53;;;;;;;1.83;1.40;;;24.20;60.30;;;;;;5033699;28;20449;-82
2022/04/26 12:13:32;;;;;;;1.80;1.70;;;24.20;60.30;;;;;;5033809;28;20453;-82
2022/04/26 12:16:14;;;;;;;1.97;1.87;;;24.20;60.20;;;;;;5033944;28;20470;-81
2022/04/26 12:18:52;;;;;;;1.57;1.47;;;24.20;60.30;;;;;;5033711;28;20457;-82
2022/04/26 12:21:20;;;;;;;1.50;1.40;;;24.20;60.40;;;;;;5033324;28;20449;-82
2022/04/26 12:23:47;;;;;;;2.17;2.07;;;24.20;60.40;;;;;;5033267;28;20453;-82
2022/04/26 12:26:15;;;;;;;1.50;1.40;;;24.20;60.40;;;;;;5033064;28;20486;-82
2022/04/26 12:28:50;;;;;;;2.00;1.90;;;24.20;60.30;;;;;;5032688;28;20829;-81
2022/04/26 12:31:26;;;;;;;1.70;1.60;;;24.20;60.20;;;;;;5032905;28;20464;-82
2022/04/26 12:34:12;;;;;;;2.07;1.97;;;24.20;61.10;;;;;;5032884;28;20446;-79
2022/04/26 12:36:56;;;;;;;2.80;2.60;;;24.20;60.10;;;;;;5033297;28;20442;-82
2022/04/26 12:39:25;;;;;;;1.87;1.77;;;24.20;59.70;;;;;;5033576;28;20438;-82
2022/04/26 12:41:56;;;;;;;2.43;2.23;;;24.20;59.90;;;;;;5033020;28;20441;-82
2022/04/26 12:44:25;;;;;;;2.30;2.20;;;24.20;60.80;;;;;;5033182;28;20505;-82
2022/04/26 12:52:31;;;;;;;2.07;1.97;;;24.10;60.00;;;;;;5032703;28;20781;-82
2022/04/26 12:54:57;;;;;;;2.10;2.00;;;24.30;60.20;;;;;;5015545;28;20456;-81
2022/04/26 12:57:26;;;;;;;2.37;2.17;;;24.10;60.00;;;;;;5032489;28;20477;-82
2022/04/26 12:59:52;;;;;;;1.90;1.80;;;24.10;60.00;;;;;;5032646;28;20478;-82
2022/04/26 13:02:19;;;;;;;2.13;1.60;;;24.10;59.90;;;;;;5032387;28;20469;-82
2022/04/26 13:04:46;;;;;;;1.70;1.60;;;24.10;59.90;;;;;;5033081;28;20493;-82
2022/04/26 13:07:13;;;;;;;1.90;1.80;;;24.10;59.90;;;;;;5032563;28;20542;-81
2022/04/26 13:09:40;;;;;;;2.40;2.20;;;24.10;60.00;;;;;;5032815;28;21006;-82
2022/04/26 13:12:07;;;;;;;1.90;1.80;;;24.10;60.00;;;;;;5032803;28;20447;-82
2022/04/26 13:14:36;;;;;;;1.90;1.80;;;24.10;60.00;;;;;;5033070;28;20462;-82
2022/04/26 13:17:04;;;;;;;2.10;2.00;;;24.00;59.90;;;;;;5033555;28;20447;-82
2022/04/26 13:19:31;;;;;;;2.13;1.93;;;24.00;59.90;;;;;;5032923;28;20446;-81
2022/04/26 13:21:58;;;;;;;1.70;1.60;;;24.00;60.00;;;;;;5032903;28;20443;-82
2022/04/26 13:24:28;;;;;;;2.30;2.10;;;24.00;59.90;;;;;;5032847;28;20434;-82
2022/04/26 13:26:55;;;;;;;2.00;1.90;;;24.00;59.90;;;;;;5032758;28;20457;-82
2022/04/26 13:29:21;;;;;;;3.20;1.90;;;24.00;59.90;;;;;;5032721;28;20995;-82
2022/04/26 13:31:50;;;;;;;2.40;2.20;;;24.00;60.00;;;;;;5032639;28;20447;-82
2022/04/26 13:34:17;;;;;;;2.07;1.97;;;23.90;59.90;;;;;;5033128;28;20477;-82
2022/04/26 13:36:44;;;;;;;2.10;2.00;;;23.90;59.90;;;;;;5032857;28;20839;-82
2022/04/26 13:39:10;;;;;;;2.40;2.20;;;23.90;59.90;;;;;;5032767;28;20434;-82
2022/04/26 13:41:37;;;;;;;2.50;2.30;;;23.90;59.90;;;;;;5032702;28;20813;-82
2022/04/26 13:44:04;;;;;;;2.20;2.10;;;23.90;59.90;;;;;;5032803;28;20541;-82
2022/04/26 13:46:32;;;;;;;2.23;2.13;;;23.90;59.90;;;;;;5032494;28;20490;-82
2022/04/26 13:49:00;;;;;;;2.17;2.07;;;23.90;59.90;;;;;;5032567;28;20537;-81
2022/04/26 13:51:29;;;;;;;2.30;2.20;;;23.90;59.90;;;;;;5032424;28;20451;-81
2022/04/26 13:53:56;;;;;;;2.10;2.00;;;23.90;60.00;;;;;;5032609;28;20457;-81
2022/04/26 13:56:22;;;;;;;1.80;1.70;;;23.90;60.00;;;;;;5032443;28;20454;-81
2022/04/26 13:58:49;;;;;;;2.10;2.00;;;23.90;60.00;;;;;;5032203;28;20469;-81
2022/04/26 14:01:16;;;;;;;2.20;2.07;;;23.80;59.90;;;;;;5032513;28;20442;-81
2022/04/26 14:03:42;;;;;;;2.20;2.10;;;23.80;59.90;;;;;;5032843;28;20443;-82
2022/04/26 14:06:11;;;;;;;1.70;1.60;;;23.80;59.90;;;;;;5036116;28;20490;-81
2022/04/26 14:08:38;;;;;;;2.20;2.10;;;23.80;60.00;;;;;;5035673;28;21051;-81
2022/04/26 14:11:05;;;;;;;1.70;1.60;;;23.90;60.00;;;;;;5035934;28;20454;-81
2022/04/26 14:21:47;;;;;;;2.03;1.77;;;23.80;59.90;;;;;;5035877;28;20450;-81
2022/04/26 14:21:49;;;;;;;2.10;2.00;;;23.80;60.00;;;;;;5035892;28;20422;-81
2022/04/26 14:24:16;;;;;;;1.90;1.80;;;23.80;60.00;;;;;;5035447;28;20450;-81
2022/04/26 14:26:44;;;;;;;2.03;1.90;;;23.80;60.00;;;;;;5035650;28;20490;-81
2022/04/26 14:29:11;;;;;;;1.90;1.80;;;23.80;59.90;;;;;;5039934;28;20844;-82
2022/04/26 14:31:38;;;;;;;2.90;2.00;;;23.80;60.00;;;;;;5055245;28;20445;-81
2022/04/26 14:34:05;;;;;;;2.10;2.00;;;23.90;60.00;;;;;;5055305;28;20441;-81
2022/04/26 14:36:32;;;;;;;2.10;2.00;;;23.80;60.00;;;;;;5055649;28;20461;-81
2022/04/26 14:39:00;;;;;;;2.40;2.30;;;23.80;60.00;;;;;;5055280;28;20794;-82
2022/04/26 14:41:27;;;;;;;2.00;1.90;;;23.80;60.00;;;;;;5055246;28;20950;-82
2022/04/26 14:43:54;;;;;;;2.23;2.00;;;23.80;60.00;;;;;;5055361;28;20853;-81
2022/04/26 14:46:21;;;;;;;2.13;2.03;;;23.80;60.00;;;;;;5055203;28;20489;-81
2022/04/26 14:48:48;;;;;;;2.07;1.97;;;23.80;60.10;;;;;;5055423;28;20445;-81
2022/04/26 14:51:15;;;;;;;4.00;2.40;;;23.80;60.10;;;;;;5055439;28;20446;-81
2022/04/26 14:53:41;;;;;;;2.30;2.20;;;23.80;60.10;;;;;;5054853;28;20452;-82
2022/04/26 14:56:10;;;;;;;2.47;2.30;;;23.80;60.10;;;;;;5055048;28;20444;-81
2022/04/26 14:58:37;;;;;;;2.20;2.10;;;23.80;60.20;;;;;;5054988;28;20792;-81
2022/04/26 15:01:04;;;;;;;2.20;2.10;;;23.80;60.20;;;;;;5055009;28;20437;-81
2022/04/26 15:03:31;;;;;;;1.80;1.70;;;23.80;60.20;;;;;;5054699;28;20444;-81
2022/04/26 15:05:59;;;;;;;1.87;1.77;;;23.80;60.20;;;;;;5054751;28;20543;-81
2022/04/26 15:11:11;;;;;;;1.83;1.60;;;23.80;60.20;;;;;;5075267;28;20927;-81
2022/04/26 15:19:05;;;;;;;2.00;1.90;;;23.80;60.40;;;;;;5074431;28;20429;-81
2022/04/26 15:21:32;;;;;;;1.80;1.70;;;23.80;60.40;;;;;;5074578;28;20777;-81
2022/04/26 15:23:59;;;;;;;2.33;2.23;;;23.80;60.40;;;;;;5074469;28;20515;-81
2022/04/26 15:26:27;;;;;;;2.20;2.00;;;23.80;60.30;;;;;;5073817;28;20480;-81
2022/04/26 15:28:54;;;;;;;3.20;2.13;;;23.80;60.30;;;;;;5074258;28;20499;-81
2022/04/26 15:31:22;;;;;;;2.10;2.00;;;23.80;60.20;;;;;;5074643;28;20445;-81
2022/04/26 15:33:50;;;;;;;2.43;2.23;;;23.80;60.20;;;;;;5074627;28;20498;-81
2022/04/26 15:36:19;;;;;;;1.90;1.80;;;23.80;60.20;;;;;;5074189;28;20441;-81
2022/04/26 15:38:47;;;;;;;2.33;2.23;;;23.80;60.10;;;;;;5073944;28;20453;-81
2022/04/26 15:41:14;;;;;;;2.17;2.07;;;23.70;60.00;;;;;;5074223;28;20723;-81
2022/04/26 15:43:43;;;;;;;2.20;2.10;;;23.80;60.10;;;;;;5073974;28;20899;-81
2022/04/26 15:46:11;;;;;;;2.40;2.23;;;23.80;60.10;;;;;;5073982;28;20488;-81
2022/04/26 15:48:44;;;;;;;2.67;2.47;;;23.90;60.20;;;;;;5073903;28;20444;-81
2022/04/26 15:51:11;;;;;;;1.97;1.87;;;23.80;60.10;;;;;;5074057;28;20476;-81
2022/04/26 15:53:38;;;;;;;2.10;2.00;;;23.70;60.00;;;;;;5073923;28;20460;-81
2022/04/26 15:56:05;;;;;;;2.40;2.20;;;23.90;60.20;;;;;;5073741;28;20436;-81
2022/04/26 15:58:32;;;;;;;2.20;2.00;;;23.70;60.00;;;;;;5073488;28;20461;-81
2022/04/26 16:01:00;;;;;;;2.00;1.90;;;23.80;60.10;;;;;;5072990;28;20443;-81
2022/04/26 16:03:27;;;;;;;2.00;1.90;;;23.70;60.00;;;;;;5073080;28;20448;-81
2022/04/26 16:05:54;;;;;;;2.50;2.30;;;23.70;60.10;;;;;;5073421;28;20472;-81
2022/04/26 16:08:21;;;;;;;2.10;2.00;;;23.70;60.10;;;;;;5073409;28;20479;-81
2022/04/26 16:21:46;;;;;;;2.00;1.90;;;23.70;60.30;;;;;;5073805;28;20423;-82
2022/04/26 16:24:13;;;;;;;1.80;1.70;;;23.70;60.40;;;;;;5073513;28;20445;-81
2022/04/26 16:26:39;;;;;;;1.73;1.63;;;23.70;60.40;;;;;;5072995;28;20495;-81
2022/04/26 16:29:08;;;;;;;2.17;2.07;;;23.70;60.30;;;;;;5073318;28;20547;-81
2022/04/26 16:31:38;;;;;;;1.90;1.80;;;23.70;60.30;;;;;;5073292;28;20459;-81
2022/04/26 16:34:06;;;;;;;3.20;1.90;;;23.70;60.30;;;;;;5073110;28;20455;-81
2022/04/26 16:36:35;;;;;;;1.90;1.80;;;23.70;60.30;;;;;;5073236;28;20476;-81
2022/04/26 16:39:02;;;;;;;1.90;1.80;;;23.70;60.30;;;;;;5073579;28;20473;-81
2022/04/26 16:41:30;;;;;;;2.10;2.00;;;23.70;60.30;;;;;;5073228;28;20444;-81
2022/04/26 16:43:56;;;;;;;2.07;1.97;;;23.70;60.30;;;;;;5073233;28;20476;-81
2022/04/26 16:46:25;;;;;;;2.03;1.80;;;23.70;60.30;;;;;;5073035;28;20481;-82
2022/04/26 16:48:53;;;;;;;2.40;2.30;;;23.70;60.30;;;;;;5066886;28;20553;-82
2022/04/26 16:51:22;;;;;;;1.80;1.70;;;23.70;60.30;;;;;;5052121;28;20961;-83
2022/04/26 16:53:49;;;;;;;1.80;1.70;;;23.70;60.20;;;;;;5052967;28;20991;-81
2022/04/26 16:56:16;;;;;;;1.80;1.70;;;23.70;60.20;;;;;;5052752;28;20808;-81
2022/04/26 16:58:43;;;;;;;2.07;1.87;;;23.70;60.10;;;;;;5052363;28;20457;-81
2022/04/26 17:01:10;;;;;;;1.80;1.70;;;23.70;60.10;;;;;;5052655;28;20471;-83
2022/04/26 17:03:36;;;;;;;1.93;1.83;;;23.70;60.10;;;;;;5052848;28;20814;-82
2022/04/26 17:06:05;;;;;;;1.80;1.70;;;23.70;60.00;;;;;;5052422;28;20482;-82
2022/04/26 17:08:31;;;;;;;1.80;1.70;;;23.70;60.10;;;;;;5052504;28;20991;-81
2022/04/26 17:13:39;;;;;;;2.10;2.00;;;23.70;60.10;;;;;;5051312;28;20485;-82
2022/04/26 17:16:06;;;;;;;1.93;1.83;;;23.70;60.10;;;;;;5052725;28;20812;-82
2022/04/26 17:18:33;;;;;;;2.30;2.20;;;23.70;60.10;;;;;;5052572;28;20449;-82